• Bienvenue sur Pilotes Québec!
  • Bienvenue sur le site de Pilotes Québec, la nouvelle communauté des pilotes et aviateurs du Québec.
  • L'image de cette semaine nous vient de Denis Morissette!  La photo a été prise à Miguasha, en Gaspésie, lors d'un atterrissage par bon vent de travers et fort vent rabattant en finale.
  • Calendrier des activités
  • sujets récents au forum...
  • Les nouvelles en bref...

Connexion


J'ai oublié mon mot de passe
Renvoyer l'e-mail de confirmation
 

Publicité

Vous aimeriez afficher une publicité pour joindre la communauté des pilotes professionnels et privé du Québec?  Cliquez ici pour en savoir plus!

Conditions actuelles

Click for Quebec, Quebec Forecast

METAR - Québec


2015/07/30 20:00
CYQB 302000Z 24015KT 15SM SCT025 BKN130 BKN240 26/21 A2964 RMK CU3AC2CI2 SLP037 DENSITY ALT 1900FT

TAF - Québec


2015/07/30 18:42
TAF TAF CYQB 301738Z 3018/3118 09005KT P6SM -SHRA BKN040
TEMPO 3018/3020 VRB20G30KT 2SM TSRA BR BKN010 OVC030CB
FM302000 22012G22KT P6SM -SHRA BKN040
TEMPO 3020/3024 5SM -SHRA BR BKN020 PROB30 3020/3021 VRB20G30KT 2SM TSRA BR BKN010 OVC030CB
FM310000 22010KT P6SM SCT008 BKN025 PROB30 3100/3104 2SM BR BKN008 OVC025
FM310400 VRB03KT 6SM BR BKN050
TEMPO 3104/3114 2SM BR
FM311400 23012KT P6SM BKN025
TEMPO 3114/3118 5SM -SHRA BR BKN010 PROB30 3114/3118 2SM TSRA BR BKN008CB
RMK NXT FCST BY 310000Z